Flippin, AR

5:27 AM CDT on October 24, 2014 (GMT -0500)
Marion County Regional | Change Station
CLOSE
Current Station
Airport
Location: Flippin,
Elevation: 715 ft
Nearby Weather Stations

Elev 715 ft 36.29 °N, 92.59 °W | Updated 12 minutes ago

Clear
Clear
46 °F
Feels Like 46 °F
N
0
Wind Variable Wind from North
Gusts 2 mph

Today
High -- | Low -- °F
--% Chance of Precip.
Yesterday
High -- | Low -- °F
Precip. -- in
7:25 AM 6:22 PM
New Moon, 0% visible
Pressure 30.13 in
Visibility 0.5 miles
Clouds
Dew Point 41 °F
Humidity 81%
Rainfall 0.00 in
Snow Depth Not available.
UV Not available.
Pollen 1.90 out of 12
Air Quality Not available.
Flu Activity Sporadic
METAR KFLP 241015Z AUTO 00000KT 1/2SM VV005 08/05 A3013 RMK AO1

More Conditions Fewer Conditions

Pressure 30.13 in
Visibility 0.5 miles
Clouds
Dew Point 41 °F
Humidity 81%
Rainfall 0.00 in
Snow Depth Not available.
UV Not available.
Pollen 1.90 out of 12
Air Quality Not available.
Flu Activity Sporadic
METAR KFLP 241015Z AUTO 00000KT 1/2SM VV005 08/05 A3013 RMK AO1

More Conditions Fewer Conditions

10-Day Weather Forecast

Almanac

Astronomy

Oct. 24, 2014 Rise Set
Actual Time 7:25 AM CDT 6:22 PM CDT
Civil Twilight 6:59 AM CDT 6:49 PM CDT
Nautical Twilight 6:29 AM CDT 7:19 PM CDT
Astronomical Twilight 5:59 AM CDT 7:49 PM CDT
Moon 8:04 AM CDT 7:04 PM CDT
Length of Visible Light 11h 49m
Length of Day
10h 57m
Tomorrow will be 2m 8s shorter.
New Moon, 0% of the Moon is Illuminated
Today
New Moon
Oct 30
First Quarter
Nov 6
Full
Nov 14
Last Quarter
Nov 22
New

Today's Extremes

State Highs State Lows

Community

WunderPhotos

Upload Photos

1,764,513 photos uploaded!

WunderBlogs® & News

Nearby

Snow Depth

Station Depth Elevation
No new snow has been reported.

Earthquake Activity

City Distance Mag. Time & Date
No recent earthquake activity has been reported nearby.
Minimum magnitude displayed is 2.5.

Coastal Water Temperatures

Place Temperature
No Stations Reporting

Nearby Weather Stations